Pagrindinis puslapis
METAR-TAF:

METAR-TAF

Oro uostai :

Žoan Pesoa, Paraiba, Brazilija

platuma: 07-06S, ilguma: 034-52W, Aukštis: 7 m

Dabartinis oras

Ataskaita buvo paskelbta 35 minutes, ne 19:00 UTC
Vėjas 12 kt iš Rytų
Temperatūra 30°C
Drėgmė 70%
Slėgis 1010 hPa
Matomumas 10 km arba daugiau
Mažai debesys ne aukštis 3000 ft

METAR: SBJP 171900Z 10012KT 9999 FEW030 30/24 Q1010

Laikas: 16:35 (19:35 UTC)

Prognozė

Ataskaita buvo paskelbta 3 valandos ir 35 minutes, ne 16:00 UTC
Prognozė galioja nuo 17 metu 18 UTC su 18 metu 18 UTC
Vėjas 8 kt iš Pietryčių
Matomumas: 8000 m
Išsisklaidę debesys ne aukštis 2000 ft
lietus
Tapsmas
nuo 18 metu 01 UTC su 18 metu 03 UTC
Vėjas 5 kt iš Pietryčių
Tapsmas
nuo 18 metu 12 UTC su 18 metu 14 UTC
Vėjas 8 kt iš Rytų/Pietryčių
Su prošvaistėmis ne aukštis 3000 ft
Tapsmas
nuo 18 metu 16 UTC su 18 metu 18 UTC
Išsisklaidę debesys ne aukštis 3000 ft

TAF: SBJP 171600Z 1718/1818 14008KT 8000 SHRA SCT020 TN25/1809Z TX32/1817Z BECMG 1801/1803 14005KT BECMG 1812/1814 12008KT BKN030 BECMG 1816/1818 SCT030 RMK PAY

Orai ataskaitas ir orų prognozės (METAR, TAF).

turimą stotys yra geltonos ir raudonos taškus žemėlapyje.

Perkelti pele per norėdami pamatyti stoties vardą.

Tada spustelėkite, norėdami matyti oro stebėjimo ir prognozės.

Norėdami pakeisti žemėlapį: spustelėkite ant žalios mygtukų su juodo kryžiaus žemyn,; žalią mygtuką su brūkšneliu, jei norite nutolinti; arba žalių rodyklių gretimoms žemėlapius.


METAR-TAF: